sensor_id;sensor_type;location;lat;lon;timestamp;P1;durP1;ratioP1;P2;durP2;ratioP2
75289;SDS011;63883;48.996;20.804;2023-03-01T00:01:24;31.25;;;12.48;;
75289;SDS011;63883;48.996;20.804;2023-03-01T00:06:18;29.88;;;12.20;;
75289;SDS011;63883;48.996;20.804;2023-03-01T00:08:45;33.08;;;13.20;;
75289;SDS011;63883;48.996;20.804;2023-03-01T00:13:39;30.67;;;12.77;;
75289;SDS011;63883;48.996;20.804;2023-03-01T00:16:07;25.10;;;12.68;;
75289;SDS011;63883;48.996;20.804;2023-03-01T00:21:00;25.52;;;11.35;;
75289;SDS011;63883;48.996;20.804;2023-03-01T00:23:26;27.45;;;12.13;;
75289;SDS011;63883;48.996;20.804;2023-03-01T00:25:53;29.85;;;12.85;;
75289;SDS011;63883;48.996;20.804;2023-03-01T00:28:19;29.48;;;11.23;;
75289;SDS011;63883;48.996;20.804;2023-03-01T00:30:45;25.15;;;11.23;;
75289;SDS011;63883;48.996;20.804;2023-03-01T00:33:11;23.98;;;11.15;;
75289;SDS011;63883;48.996;20.804;2023-03-01T00:35:37;24.77;;;11.85;;
75289;SDS011;63883;48.996;20.804;2023-03-01T00:38:03;24.95;;;11.32;;
75289;SDS011;63883;48.996;20.804;2023-03-01T00:40:30;24.38;;;11.32;;
75289;SDS011;63883;48.996;20.804;2023-03-01T00:42:58;25.10;;;11.15;;
75289;SDS011;63883;48.996;20.804;2023-03-01T00:45:24;25.63;;;11.73;;
75289;SDS011;63883;48.996;20.804;2023-03-01T00:47:50;25.85;;;11.00;;
75289;SDS011;63883;48.996;20.804;2023-03-01T00:50:16;25.67;;;10.93;;
75289;SDS011;63883;48.996;20.804;2023-03-01T00:52:43;27.45;;;11.35;;
75289;SDS011;63883;48.996;20.804;2023-03-01T00:55:09;31.13;;;12.77;;
75289;SDS011;63883;48.996;20.804;2023-03-01T00:57:36;27.10;;;11.10;;
75289;SDS011;63883;48.996;20.804;2023-03-01T01:00:02;29.27;;;12.25;;
75289;SDS011;63883;48.996;20.804;2023-03-01T01:02:29;22.17;;;10.60;;
75289;SDS011;63883;48.996;20.804;2023-03-01T01:04:57;27.13;;;12.35;;
75289;SDS011;63883;48.996;20.804;2023-03-01T01:07:22;27.80;;;12.05;;
75289;SDS011;63883;48.996;20.804;2023-03-01T01:09:48;27.65;;;11.73;;
75289;SDS011;63883;48.996;20.804;2023-03-01T01:12:14;27.50;;;12.25;;
75289;SDS011;63883;48.996;20.804;2023-03-01T01:14:40;25.88;;;11.80;;
75289;SDS011;63883;48.996;20.804;2023-03-01T01:17:05;27.77;;;12.18;;
75289;SDS011;63883;48.996;20.804;2023-03-01T01:19:31;25.55;;;12.50;;
75289;SDS011;63883;48.996;20.804;2023-03-01T01:21:56;24.60;;;11.05;;
75289;SDS011;63883;48.996;20.804;2023-03-01T01:24:22;23.65;;;9.88;;
75289;SDS011;63883;48.996;20.804;2023-03-01T01:26:48;21.60;;;9.93;;
75289;SDS011;63883;48.996;20.804;2023-03-01T01:29:14;20.17;;;9.20;;
75289;SDS011;63883;48.996;20.804;2023-03-01T01:31:40;20.73;;;9.77;;
75289;SDS011;63883;48.996;20.804;2023-03-01T01:34:08;26.73;;;11.57;;
75289;SDS011;63883;48.996;20.804;2023-03-01T01:36:38;22.92;;;10.82;;
75289;SDS011;63883;48.996;20.804;2023-03-01T01:39:04;19.83;;;9.05;;
75289;SDS011;63883;48.996;20.804;2023-03-01T01:41:30;24.90;;;10.73;;
75289;SDS011;63883;48.996;20.804;2023-03-01T01:47:03;28.15;;;11.07;;
75289;SDS011;63883;48.996;20.804;2023-03-01T01:49:40;26.08;;;11.05;;
75289;SDS011;63883;48.996;20.804;2023-03-01T01:54:57;23.83;;;10.15;;
75289;SDS011;63883;48.996;20.804;2023-03-01T01:57:27;21.08;;;8.82;;
75289;SDS011;63883;48.996;20.804;2023-03-01T02:02:29;20.77;;;9.18;;
75289;SDS011;63883;48.996;20.804;2023-03-01T02:05:08;20.63;;;9.80;;
75289;SDS011;63883;48.996;20.804;2023-03-01T02:07:39;21.20;;;9.48;;
75289;SDS011;63883;48.996;20.804;2023-03-01T02:10:07;22.33;;;10.35;;
75289;SDS011;63883;48.996;20.804;2023-03-01T02:12:33;21.95;;;10.27;;
75289;SDS011;63883;48.996;20.804;2023-03-01T02:14:59;21.20;;;10.27;;
75289;SDS011;63883;48.996;20.804;2023-03-01T02:17:25;27.15;;;10.30;;
75289;SDS011;63883;48.996;20.804;2023-03-01T02:22:27;23.55;;;10.90;;
75289;SDS011;63883;48.996;20.804;2023-03-01T02:27:36;20.48;;;9.57;;
75289;SDS011;63883;48.996;20.804;2023-03-01T02:30:12;26.20;;;10.65;;
75289;SDS011;63883;48.996;20.804;2023-03-01T02:32:39;25.58;;;11.43;;
75289;SDS011;63883;48.996;20.804;2023-03-01T02:35:08;28.10;;;10.93;;
75289;SDS011;63883;48.996;20.804;2023-03-01T02:37:37;29.33;;;10.50;;
75289;SDS011;63883;48.996;20.804;2023-03-01T02:40:05;23.02;;;10.30;;
75289;SDS011;63883;48.996;20.804;2023-03-01T02:42:38;23.45;;;10.15;;
75289;SDS011;63883;48.996;20.804;2023-03-01T02:45:11;20.73;;;9.77;;
75289;SDS011;63883;48.996;20.804;2023-03-01T02:47:37;23.20;;;9.73;;
75289;SDS011;63883;48.996;20.804;2023-03-01T02:50:08;26.33;;;11.27;;
75289;SDS011;63883;48.996;20.804;2023-03-01T02:52:43;25.55;;;10.95;;
75289;SDS011;63883;48.996;20.804;2023-03-01T02:55:16;23.92;;;11.05;;
75289;SDS011;63883;48.996;20.804;2023-03-01T02:57:43;24.38;;;10.30;;
75289;SDS011;63883;48.996;20.804;2023-03-01T03:00:21;26.52;;;11.73;;
75289;SDS011;63883;48.996;20.804;2023-03-01T03:02:51;24.48;;;10.95;;
75289;SDS011;63883;48.996;20.804;2023-03-01T03:05:19;29.60;;;11.38;;
75289;SDS011;63883;48.996;20.804;2023-03-01T03:07:47;25.80;;;11.55;;
75289;SDS011;63883;48.996;20.804;2023-03-01T03:10:15;26.27;;;11.35;;
75289;SDS011;63883;48.996;20.804;2023-03-01T03:12:48;26.42;;;11.77;;
75289;SDS011;63883;48.996;20.804;2023-03-01T03:15:17;23.58;;;11.73;;
75289;SDS011;63883;48.996;20.804;2023-03-01T03:17:43;25.77;;;11.52;;
75289;SDS011;63883;48.996;20.804;2023-03-01T03:20:10;29.50;;;12.00;;
75289;SDS011;63883;48.996;20.804;2023-03-01T03:22:38;28.83;;;11.73;;
75289;SDS011;63883;48.996;20.804;2023-03-01T03:25:06;24.95;;;11.63;;
75289;SDS011;63883;48.996;20.804;2023-03-01T03:27:39;25.48;;;10.90;;
75289;SDS011;63883;48.996;20.804;2023-03-01T03:30:08;22.15;;;10.18;;
75289;SDS011;63883;48.996;20.804;2023-03-01T03:32:37;22.38;;;10.45;;
75289;SDS011;63883;48.996;20.804;2023-03-01T03:35:07;25.75;;;10.45;;
75289;SDS011;63883;48.996;20.804;2023-03-01T03:37:38;25.70;;;11.07;;
75289;SDS011;63883;48.996;20.804;2023-03-01T03:40:24;26.15;;;10.85;;
75289;SDS011;63883;48.996;20.804;2023-03-01T03:42:50;25.75;;;10.18;;
75289;SDS011;63883;48.996;20.804;2023-03-01T03:45:16;22.95;;;9.45;;
75289;SDS011;63883;48.996;20.804;2023-03-01T03:47:43;24.50;;;10.30;;
75289;SDS011;63883;48.996;20.804;2023-03-01T03:50:10;21.85;;;10.43;;
75289;SDS011;63883;48.996;20.804;2023-03-01T03:52:37;26.30;;;12.60;;
75289;SDS011;63883;48.996;20.804;2023-03-01T03:55:03;32.90;;;13.45;;
75289;SDS011;63883;48.996;20.804;2023-03-01T03:57:39;28.70;;;12.75;;
75289;SDS011;63883;48.996;20.804;2023-03-01T04:00:08;26.25;;;12.38;;
75289;SDS011;63883;48.996;20.804;2023-03-01T04:02:43;24.13;;;11.95;;
75289;SDS011;63883;48.996;20.804;2023-03-01T04:05:10;27.23;;;11.75;;
75289;SDS011;63883;48.996;20.804;2023-03-01T04:07:37;25.13;;;10.65;;
75289;SDS011;63883;48.996;20.804;2023-03-01T04:10:04;21.80;;;11.10;;
75289;SDS011;63883;48.996;20.804;2023-03-01T04:12:32;23.95;;;11.00;;
75289;SDS011;63883;48.996;20.804;2023-03-01T04:14:59;33.40;;;12.75;;
75289;SDS011;63883;48.996;20.804;2023-03-01T04:17:26;39.80;;;16.52;;
75289;SDS011;63883;48.996;20.804;2023-03-01T04:19:52;24.42;;;10.70;;
75289;SDS011;63883;48.996;20.804;2023-03-01T04:22:18;25.35;;;10.95;;
75289;SDS011;63883;48.996;20.804;2023-03-01T04:24:44;24.25;;;10.75;;
75289;SDS011;63883;48.996;20.804;2023-03-01T04:27:10;23.88;;;10.98;;
75289;SDS011;63883;48.996;20.804;2023-03-01T04:29:37;22.52;;;10.98;;
75289;SDS011;63883;48.996;20.804;2023-03-01T04:32:03;27.08;;;10.35;;
75289;SDS011;63883;48.996;20.804;2023-03-01T04:34:30;21.58;;;9.75;;
75289;SDS011;63883;48.996;20.804;2023-03-01T04:36:55;20.95;;;9.77;;
75289;SDS011;63883;48.996;20.804;2023-03-01T04:39:21;22.80;;;10.10;;
75289;SDS011;63883;48.996;20.804;2023-03-01T04:41:47;21.77;;;9.75;;
75289;SDS011;63883;48.996;20.804;2023-03-01T04:44:13;22.13;;;10.07;;
75289;SDS011;63883;48.996;20.804;2023-03-01T04:46:38;19.30;;;9.75;;
75289;SDS011;63883;48.996;20.804;2023-03-01T04:49:04;19.50;;;8.77;;
75289;SDS011;63883;48.996;20.804;2023-03-01T04:51:30;19.02;;;9.55;;
75289;SDS011;63883;48.996;20.804;2023-03-01T04:53:59;21.13;;;9.55;;
75289;SDS011;63883;48.996;20.804;2023-03-01T04:56:25;21.17;;;9.30;;
75289;SDS011;63883;48.996;20.804;2023-03-01T04:58:53;23.58;;;10.00;;
75289;SDS011;63883;48.996;20.804;2023-03-01T05:01:19;22.25;;;9.32;;
75289;SDS011;63883;48.996;20.804;2023-03-01T05:03:46;23.17;;;10.05;;
75289;SDS011;63883;48.996;20.804;2023-03-01T05:06:14;21.92;;;9.88;;
75289;SDS011;63883;48.996;20.804;2023-03-01T05:08:41;26.65;;;10.15;;
75289;SDS011;63883;48.996;20.804;2023-03-01T05:11:07;21.95;;;10.18;;
75289;SDS011;63883;48.996;20.804;2023-03-01T05:13:35;22.05;;;9.98;;
75289;SDS011;63883;48.996;20.804;2023-03-01T05:16:02;23.00;;;10.13;;
75289;SDS011;63883;48.996;20.804;2023-03-01T05:18:30;26.75;;;11.50;;
75289;SDS011;63883;48.996;20.804;2023-03-01T05:21:30;25.33;;;11.10;;
75289;SDS011;63883;48.996;20.804;2023-03-01T05:23:49;24.20;;;10.52;;
75289;SDS011;63883;48.996;20.804;2023-03-01T05:26:16;26.40;;;11.07;;
75289;SDS011;63883;48.996;20.804;2023-03-01T05:28:43;26.77;;;12.82;;
75289;SDS011;63883;48.996;20.804;2023-03-01T05:31:09;24.25;;;11.13;;
75289;SDS011;63883;48.996;20.804;2023-03-01T05:33:36;26.15;;;12.32;;
75289;SDS011;63883;48.996;20.804;2023-03-01T05:36:03;26.15;;;10.75;;
75289;SDS011;63883;48.996;20.804;2023-03-01T05:38:30;25.85;;;11.05;;
75289;SDS011;63883;48.996;20.804;2023-03-01T05:40:55;27.45;;;11.32;;
75289;SDS011;63883;48.996;20.804;2023-03-01T05:43:21;22.15;;;9.70;;
75289;SDS011;63883;48.996;20.804;2023-03-01T05:45:46;25.73;;;11.20;;
75289;SDS011;63883;48.996;20.804;2023-03-01T05:48:13;36.97;;;15.38;;
75289;SDS011;63883;48.996;20.804;2023-03-01T05:50:42;37.83;;;15.68;;
75289;SDS011;63883;48.996;20.804;2023-03-01T05:53:11;45.92;;;18.40;;
75289;SDS011;63883;48.996;20.804;2023-03-01T05:55:37;49.30;;;18.70;;
75289;SDS011;63883;48.996;20.804;2023-03-01T05:58:05;36.60;;;14.50;;
75289;SDS011;63883;48.996;20.804;2023-03-01T06:02:59;23.65;;;10.20;;
75289;SDS011;63883;48.996;20.804;2023-03-01T06:05:25;27.73;;;11.10;;
75289;SDS011;63883;48.996;20.804;2023-03-01T06:07:52;24.00;;;12.02;;
75289;SDS011;63883;48.996;20.804;2023-03-01T06:10:18;27.40;;;12.05;;
75289;SDS011;63883;48.996;20.804;2023-03-01T06:12:45;27.35;;;12.60;;
75289;SDS011;63883;48.996;20.804;2023-03-01T06:15:12;33.40;;;14.40;;
75289;SDS011;63883;48.996;20.804;2023-03-01T06:17:40;28.58;;;12.75;;
75289;SDS011;63883;48.996;20.804;2023-03-01T06:20:08;25.63;;;11.90;;
75289;SDS011;63883;48.996;20.804;2023-03-01T06:22:38;25.52;;;12.15;;
75289;SDS011;63883;48.996;20.804;2023-03-01T06:25:04;29.33;;;12.48;;
75289;SDS011;63883;48.996;20.804;2023-03-01T06:27:30;30.20;;;13.30;;
75289;SDS011;63883;48.996;20.804;2023-03-01T06:29:56;26.60;;;11.65;;
75289;SDS011;63883;48.996;20.804;2023-03-01T06:32:22;27.90;;;12.18;;
75289;SDS011;63883;48.996;20.804;2023-03-01T06:34:48;25.23;;;11.85;;
75289;SDS011;63883;48.996;20.804;2023-03-01T06:37:13;32.83;;;15.68;;
75289;SDS011;63883;48.996;20.804;2023-03-01T06:39:39;34.40;;;15.75;;
75289;SDS011;63883;48.996;20.804;2023-03-01T06:42:06;33.63;;;14.48;;
75289;SDS011;63883;48.996;20.804;2023-03-01T06:44:32;36.58;;;14.70;;
75289;SDS011;63883;48.996;20.804;2023-03-01T06:46:59;34.47;;;14.10;;
75289;SDS011;63883;48.996;20.804;2023-03-01T06:49:24;26.90;;;12.95;;
75289;SDS011;63883;48.996;20.804;2023-03-01T06:51:50;28.90;;;13.68;;
75289;SDS011;63883;48.996;20.804;2023-03-01T06:54:16;30.10;;;13.68;;
75289;SDS011;63883;48.996;20.804;2023-03-01T06:56:43;28.50;;;12.30;;
75289;SDS011;63883;48.996;20.804;2023-03-01T06:59:12;22.30;;;9.98;;
75289;SDS011;63883;48.996;20.804;2023-03-01T07:01:38;20.67;;;10.05;;
75289;SDS011;63883;48.996;20.804;2023-03-01T07:04:04;19.33;;;8.82;;
75289;SDS011;63883;48.996;20.804;2023-03-01T07:06:30;22.15;;;9.35;;
75289;SDS011;63883;48.996;20.804;2023-03-01T07:08:55;21.98;;;9.35;;
75289;SDS011;63883;48.996;20.804;2023-03-01T07:11:21;19.52;;;9.35;;
75289;SDS011;63883;48.996;20.804;2023-03-01T07:13:47;22.27;;;9.93;;
75289;SDS011;63883;48.996;20.804;2023-03-01T07:16:13;21.75;;;10.35;;
75289;SDS011;63883;48.996;20.804;2023-03-01T07:18:40;22.50;;;10.50;;
75289;SDS011;63883;48.996;20.804;2023-03-01T07:21:07;21.65;;;10.13;;
75289;SDS011;63883;48.996;20.804;2023-03-01T07:23:34;20.95;;;9.40;;
75289;SDS011;63883;48.996;20.804;2023-03-01T07:26:00;20.58;;;9.73;;
75289;SDS011;63883;48.996;20.804;2023-03-01T07:28:26;19.25;;;10.23;;
75289;SDS011;63883;48.996;20.804;2023-03-01T07:30:52;21.60;;;9.27;;
75289;SDS011;63883;48.996;20.804;2023-03-01T07:33:18;17.35;;;8.85;;
75289;SDS011;63883;48.996;20.804;2023-03-01T07:35:44;20.10;;;10.30;;
75289;SDS011;63883;48.996;20.804;2023-03-01T07:38:10;23.15;;;10.73;;
75289;SDS011;63883;48.996;20.804;2023-03-01T07:40:36;21.45;;;10.85;;
75289;SDS011;63883;48.996;20.804;2023-03-01T07:43:02;23.15;;;10.93;;
75289;SDS011;63883;48.996;20.804;2023-03-01T07:45:28;25.63;;;11.13;;
75289;SDS011;63883;48.996;20.804;2023-03-01T07:47:54;24.30;;;11.48;;
75289;SDS011;63883;48.996;20.804;2023-03-01T07:50:21;25.42;;;11.95;;
75289;SDS011;63883;48.996;20.804;2023-03-01T07:52:47;26.58;;;12.07;;
75289;SDS011;63883;48.996;20.804;2023-03-01T07:55:14;23.20;;;11.25;;
75289;SDS011;63883;48.996;20.804;2023-03-01T07:57:41;24.15;;;11.07;;
75289;SDS011;63883;48.996;20.804;2023-03-01T08:00:08;21.25;;;10.73;;
75289;SDS011;63883;48.996;20.804;2023-03-01T08:02:36;22.05;;;10.98;;
75289;SDS011;63883;48.996;20.804;2023-03-01T08:05:02;22.40;;;11.05;;
75289;SDS011;63883;48.996;20.804;2023-03-01T08:07:28;28.92;;;13.55;;
75289;SDS011;63883;48.996;20.804;2023-03-01T08:09:54;26.88;;;12.75;;
75289;SDS011;63883;48.996;20.804;2023-03-01T08:12:19;26.23;;;12.60;;
75289;SDS011;63883;48.996;20.804;2023-03-01T08:14:45;25.92;;;12.88;;
75289;SDS011;63883;48.996;20.804;2023-03-01T08:17:13;25.10;;;12.68;;
75289;SDS011;63883;48.996;20.804;2023-03-01T08:19:39;25.10;;;11.40;;
75289;SDS011;63883;48.996;20.804;2023-03-01T08:22:05;23.60;;;11.40;;
75289;SDS011;63883;48.996;20.804;2023-03-01T08:24:31;20.63;;;10.90;;
75289;SDS011;63883;48.996;20.804;2023-03-01T08:26:56;29.05;;;13.80;;
75289;SDS011;63883;48.996;20.804;2023-03-01T08:29:22;24.42;;;11.38;;
75289;SDS011;63883;48.996;20.804;2023-03-01T08:31:50;21.17;;;11.48;;
75289;SDS011;63883;48.996;20.804;2023-03-01T08:34:16;19.83;;;10.63;;
75289;SDS011;63883;48.996;20.804;2023-03-01T08:36:44;21.25;;;10.50;;
75289;SDS011;63883;48.996;20.804;2023-03-01T08:39:12;23.88;;;11.10;;
75289;SDS011;63883;48.996;20.804;2023-03-01T08:41:39;21.98;;;11.68;;
75289;SDS011;63883;48.996;20.804;2023-03-01T08:44:06;27.17;;;13.02;;
75289;SDS011;63883;48.996;20.804;2023-03-01T08:46:33;22.88;;;11.68;;
75289;SDS011;63883;48.996;20.804;2023-03-01T08:49:05;23.55;;;11.60;;
75289;SDS011;63883;48.996;20.804;2023-03-01T08:51:38;21.50;;;10.98;;
75289;SDS011;63883;48.996;20.804;2023-03-01T08:54:06;20.70;;;11.48;;
75289;SDS011;63883;48.996;20.804;2023-03-01T08:56:33;23.38;;;11.77;;
75289;SDS011;63883;48.996;20.804;2023-03-01T08:58:59;22.67;;;10.70;;
75289;SDS011;63883;48.996;20.804;2023-03-01T09:01:25;20.77;;;11.20;;
75289;SDS011;63883;48.996;20.804;2023-03-01T09:03:51;20.95;;;10.93;;
75289;SDS011;63883;48.996;20.804;2023-03-01T09:06:16;19.98;;;11.25;;
75289;SDS011;63883;48.996;20.804;2023-03-01T09:08:46;22.17;;;11.13;;
75289;SDS011;63883;48.996;20.804;2023-03-01T09:11:14;20.88;;;12.15;;
75289;SDS011;63883;48.996;20.804;2023-03-01T09:13:45;20.90;;;11.55;;
75289;SDS011;63883;48.996;20.804;2023-03-01T09:16:12;19.40;;;11.93;;
75289;SDS011;63883;48.996;20.804;2023-03-01T09:18:40;20.52;;;11.35;;
75289;SDS011;63883;48.996;20.804;2023-03-01T09:21:09;17.65;;;10.68;;
75289;SDS011;63883;48.996;20.804;2023-03-01T09:23:41;19.00;;;11.45;;
75289;SDS011;63883;48.996;20.804;2023-03-01T09:28:36;18.33;;;10.15;;
75289;SDS011;63883;48.996;20.804;2023-03-01T09:31:02;18.75;;;10.23;;
75289;SDS011;63883;48.996;20.804;2023-03-01T09:33:29;19.10;;;10.93;;
75289;SDS011;63883;48.996;20.804;2023-03-01T09:36:00;19.33;;;11.38;;
75289;SDS011;63883;48.996;20.804;2023-03-01T09:38:29;23.42;;;13.05;;
75289;SDS011;63883;48.996;20.804;2023-03-01T09:40:55;21.65;;;12.07;;
75289;SDS011;63883;48.996;20.804;2023-03-01T09:43:30;18.90;;;11.02;;
75289;SDS011;63883;48.996;20.804;2023-03-01T09:46:05;16.85;;;10.20;;
75289;SDS011;63883;48.996;20.804;2023-03-01T09:48:46;37.95;;;11.38;;
75289;SDS011;63883;48.996;20.804;2023-03-01T09:51:22;17.40;;;9.50;;
75289;SDS011;63883;48.996;20.804;2023-03-01T09:53:55;16.77;;;9.23;;
75289;SDS011;63883;48.996;20.804;2023-03-01T09:58:58;12.60;;;8.25;;
75289;SDS011;63883;48.996;20.804;2023-03-01T10:07:02;14.70;;;8.98;;
75289;SDS011;63883;48.996;20.804;2023-03-01T10:09:40;13.55;;;8.15;;
75289;SDS011;63883;48.996;20.804;2023-03-01T10:12:12;22.52;;;10.55;;
75289;SDS011;63883;48.996;20.804;2023-03-01T10:14:54;14.40;;;8.60;;
75289;SDS011;63883;48.996;20.804;2023-03-01T10:18:06;14.23;;;8.70;;
75289;SDS011;63883;48.996;20.804;2023-03-01T10:22:48;14.05;;;9.07;;
75289;SDS011;63883;48.996;20.804;2023-03-01T10:25:42;16.08;;;9.68;;
75289;SDS011;63883;48.996;20.804;2023-03-01T10:28:17;14.35;;;9.85;;
75289;SDS011;63883;48.996;20.804;2023-03-01T10:30:43;15.55;;;9.57;;
75289;SDS011;63883;48.996;20.804;2023-03-01T10:33:20;15.40;;;9.45;;
75289;SDS011;63883;48.996;20.804;2023-03-01T10:35:49;14.00;;;8.85;;
75289;SDS011;63883;48.996;20.804;2023-03-01T10:38:15;13.48;;;9.40;;
75289;SDS011;63883;48.996;20.804;2023-03-01T10:40:55;14.63;;;9.23;;
75289;SDS011;63883;48.996;20.804;2023-03-01T10:43:24;14.68;;;9.52;;
75289;SDS011;63883;48.996;20.804;2023-03-01T10:45:52;15.30;;;9.55;;
75289;SDS011;63883;48.996;20.804;2023-03-01T10:48:22;14.55;;;8.93;;
75289;SDS011;63883;48.996;20.804;2023-03-01T10:58:34;13.25;;;8.85;;
75289;SDS011;63883;48.996;20.804;2023-03-01T11:01:03;14.93;;;8.93;;
75289;SDS011;63883;48.996;20.804;2023-03-01T11:03:32;13.27;;;8.73;;
75289;SDS011;63883;48.996;20.804;2023-03-01T11:06:02;14.20;;;9.10;;
75289;SDS011;63883;48.996;20.804;2023-03-01T11:08:39;13.27;;;9.15;;
75289;SDS011;63883;48.996;20.804;2023-03-01T11:11:25;12.57;;;8.48;;
75289;SDS011;63883;48.996;20.804;2023-03-01T11:14:03;12.20;;;8.75;;
75289;SDS011;63883;48.996;20.804;2023-03-01T11:16:35;12.90;;;8.95;;
75289;SDS011;63883;48.996;20.804;2023-03-01T11:21:38;13.65;;;9.00;;
75289;SDS011;63883;48.996;20.804;2023-03-01T11:24:10;13.15;;;9.25;;
75289;SDS011;63883;48.996;20.804;2023-03-01T11:26:39;13.95;;;9.40;;
75289;SDS011;63883;48.996;20.804;2023-03-01T11:29:12;14.05;;;9.07;;
75289;SDS011;63883;48.996;20.804;2023-03-01T11:31:56;12.85;;;8.52;;
75289;SDS011;63883;48.996;20.804;2023-03-01T11:34:32;12.18;;;8.32;;
75289;SDS011;63883;48.996;20.804;2023-03-01T11:37:09;10.73;;;7.78;;
75289;SDS011;63883;48.996;20.804;2023-03-01T11:39:43;11.93;;;7.85;;
75289;SDS011;63883;48.996;20.804;2023-03-01T11:42:18;11.73;;;7.82;;
75289;SDS011;63883;48.996;20.804;2023-03-01T11:44:50;12.02;;;8.38;;
75289;SDS011;63883;48.996;20.804;2023-03-01T11:50:29;11.48;;;8.35;;
75289;SDS011;63883;48.996;20.804;2023-03-01T11:53:19;12.75;;;8.27;;
75289;SDS011;63883;48.996;20.804;2023-03-01T11:56:25;11.75;;;8.55;;
75289;SDS011;63883;48.996;20.804;2023-03-01T11:59:07;11.32;;;7.68;;
75289;SDS011;63883;48.996;20.804;2023-03-01T12:04:50;13.88;;;7.95;;
75289;SDS011;63883;48.996;20.804;2023-03-01T12:10:07;11.60;;;7.05;;
75289;SDS011;63883;48.996;20.804;2023-03-01T12:13:43;9.73;;;7.03;;
75289;SDS011;63883;48.996;20.804;2023-03-01T12:29:54;8.82;;;6.53;;
75289;SDS011;63883;48.996;20.804;2023-03-01T12:49:43;7.38;;;5.07;;
75289;SDS011;63883;48.996;20.804;2023-03-01T12:52:15;8.48;;;5.65;;
75289;SDS011;63883;48.996;20.804;2023-03-01T12:54:44;7.65;;;5.50;;
75289;SDS011;63883;48.996;20.804;2023-03-01T13:00:25;7.78;;;5.50;;
75289;SDS011;63883;48.996;20.804;2023-03-01T13:02:53;6.95;;;5.43;;
75289;SDS011;63883;48.996;20.804;2023-03-01T13:13:19;6.53;;;5.20;;
75289;SDS011;63883;48.996;20.804;2023-03-01T13:15:50;7.72;;;5.30;;
75289;SDS011;63883;48.996;20.804;2023-03-01T13:23:12;6.70;;;5.07;;
75289;SDS011;63883;48.996;20.804;2023-03-01T13:31:06;7.80;;;5.15;;
75289;SDS011;63883;48.996;20.804;2023-03-01T13:36:10;4.97;;;3.90;;
75289;SDS011;63883;48.996;20.804;2023-03-01T13:39:02;5.70;;;4.53;;
75289;SDS011;63883;48.996;20.804;2023-03-01T13:46:48;6.07;;;4.70;;
75289;SDS011;63883;48.996;20.804;2023-03-01T13:49:16;5.82;;;4.80;;
75289;SDS011;63883;48.996;20.804;2023-03-01T13:51:47;5.85;;;4.18;;
75289;SDS011;63883;48.996;20.804;2023-03-01T13:54:16;5.80;;;3.72;;
75289;SDS011;63883;48.996;20.804;2023-03-01T13:56:50;6.57;;;4.97;;
75289;SDS011;63883;48.996;20.804;2023-03-01T13:59:17;6.25;;;4.32;;
75289;SDS011;63883;48.996;20.804;2023-03-01T14:01:51;5.90;;;4.88;;
75289;SDS011;63883;48.996;20.804;2023-03-01T14:04:31;7.75;;;5.15;;
75289;SDS011;63883;48.996;20.804;2023-03-01T14:07:17;4.68;;;4.10;;
75289;SDS011;63883;48.996;20.804;2023-03-01T14:09:45;7.05;;;4.75;;
75289;SDS011;63883;48.996;20.804;2023-03-01T14:15:02;5.97;;;4.40;;
75289;SDS011;63883;48.996;20.804;2023-03-01T14:20:46;6.65;;;4.57;;
75289;SDS011;63883;48.996;20.804;2023-03-01T14:23:23;5.28;;;4.10;;
75289;SDS011;63883;48.996;20.804;2023-03-01T14:30:56;8.63;;;4.50;;
75289;SDS011;63883;48.996;20.804;2023-03-01T14:33:25;5.70;;;4.47;;
75289;SDS011;63883;48.996;20.804;2023-03-01T14:38:27;6.60;;;4.95;;
75289;SDS011;63883;48.996;20.804;2023-03-01T14:40:56;7.97;;;5.70;;
75289;SDS011;63883;48.996;20.804;2023-03-01T14:43:27;8.25;;;5.63;;
75289;SDS011;63883;48.996;20.804;2023-03-01T14:45:54;7.82;;;5.93;;
75289;SDS011;63883;48.996;20.804;2023-03-01T14:48:21;9.02;;;5.95;;
75289;SDS011;63883;48.996;20.804;2023-03-01T14:50:47;10.98;;;7.38;;
75289;SDS011;63883;48.996;20.804;2023-03-01T14:53:16;10.88;;;6.97;;
75289;SDS011;63883;48.996;20.804;2023-03-01T14:55:46;6.15;;;5.07;;
75289;SDS011;63883;48.996;20.804;2023-03-01T14:58:18;5.93;;;4.40;;
75289;SDS011;63883;48.996;20.804;2023-03-01T15:00:55;6.85;;;4.70;;
75289;SDS011;63883;48.996;20.804;2023-03-01T15:03:25;7.57;;;4.95;;
75289;SDS011;63883;48.996;20.804;2023-03-01T15:06:05;7.70;;;5.45;;
75289;SDS011;63883;48.996;20.804;2023-03-01T15:08:33;7.00;;;5.30;;
75289;SDS011;63883;48.996;20.804;2023-03-01T15:11:04;6.28;;;4.72;;
75289;SDS011;63883;48.996;20.804;2023-03-01T15:13:42;7.07;;;4.55;;
75289;SDS011;63883;48.996;20.804;2023-03-01T15:16:12;6.38;;;4.90;;
75289;SDS011;63883;48.996;20.804;2023-03-01T15:18:50;8.63;;;5.70;;
75289;SDS011;63883;48.996;20.804;2023-03-01T15:21:21;7.75;;;5.30;;
75289;SDS011;63883;48.996;20.804;2023-03-01T15:23:54;8.02;;;5.40;;
75289;SDS011;63883;48.996;20.804;2023-03-01T15:26:30;14.90;;;8.60;;
75289;SDS011;63883;48.996;20.804;2023-03-01T15:28:58;11.77;;;7.53;;
75289;SDS011;63883;48.996;20.804;2023-03-01T15:31:29;13.63;;;8.65;;
75289;SDS011;63883;48.996;20.804;2023-03-01T15:34:08;12.30;;;8.00;;
75289;SDS011;63883;48.996;20.804;2023-03-01T15:36:40;10.75;;;7.03;;
75289;SDS011;63883;48.996;20.804;2023-03-01T15:42:05;14.02;;;8.57;;
75289;SDS011;63883;48.996;20.804;2023-03-01T15:44:34;15.52;;;9.27;;
75289;SDS011;63883;48.996;20.804;2023-03-01T15:47:02;13.93;;;8.88;;
75289;SDS011;63883;48.996;20.804;2023-03-01T15:49:46;16.67;;;11.13;;
75289;SDS011;63883;48.996;20.804;2023-03-01T15:52:13;16.75;;;10.02;;
75289;SDS011;63883;48.996;20.804;2023-03-01T15:54:47;18.30;;;11.38;;
75289;SDS011;63883;48.996;20.804;2023-03-01T15:57:13;18.88;;;11.35;;
75289;SDS011;63883;48.996;20.804;2023-03-01T15:59:42;15.77;;;9.57;;
75289;SDS011;63883;48.996;20.804;2023-03-01T16:02:09;31.17;;;17.25;;
75289;SDS011;63883;48.996;20.804;2023-03-01T16:04:38;20.52;;;11.18;;
75289;SDS011;63883;48.996;20.804;2023-03-01T16:07:04;16.35;;;11.18;;
75289;SDS011;63883;48.996;20.804;2023-03-01T16:09:31;15.35;;;10.07;;
75289;SDS011;63883;48.996;20.804;2023-03-01T16:11:57;13.00;;;7.93;;
75289;SDS011;63883;48.996;20.804;2023-03-01T16:14:23;13.63;;;8.43;;
75289;SDS011;63883;48.996;20.804;2023-03-01T16:16:49;14.75;;;9.32;;
75289;SDS011;63883;48.996;20.804;2023-03-01T16:19:15;14.75;;;9.23;;
75289;SDS011;63883;48.996;20.804;2023-03-01T16:21:41;13.82;;;7.85;;
75289;SDS011;63883;48.996;20.804;2023-03-01T16:24:09;12.23;;;6.50;;
75289;SDS011;63883;48.996;20.804;2023-03-01T16:26:35;11.30;;;6.50;;
75289;SDS011;63883;48.996;20.804;2023-03-01T16:29:02;10.40;;;6.15;;
75289;SDS011;63883;48.996;20.804;2023-03-01T16:31:28;10.40;;;5.95;;
75289;SDS011;63883;48.996;20.804;2023-03-01T16:33:55;11.20;;;6.03;;
75289;SDS011;63883;48.996;20.804;2023-03-01T16:36:22;11.20;;;6.18;;
75289;SDS011;63883;48.996;20.804;2023-03-01T16:38:49;13.02;;;7.53;;
75289;SDS011;63883;48.996;20.804;2023-03-01T16:41:18;12.50;;;7.47;;